Ferrieres, Belgium
Current Conditions -  °F | °C
As of 6:20 PM on Thursday 27 Nov 2014 (Local Time) from EBLG Reporting Station
Light Rain Light Rain  
Wind Chill: 44°   Ceiling: 2700
Heat Index: 48°   Visibility: 4mi
Dew Point: 45°   Wind: 10mph
Humidity: 87%   Direction: 150°SSE
Pressure: 29.68"   Gusts: NA
Location:  50.4°N, 5.61°E
Report Text: EBLG 271720Z 15009KT 7000 -RA BKN027 09/07 Q1005 NOSIG
Loading
Personal Weather Stations






























Interactive Weather Map New forecast layout! Learn more

10-Day Weather Forecast

Advertisements
Track Severe Weather on mobile